Oven Fork, Kentucky
Current Conditions -  °F | °C
As of 12:35 PM on Thursday 23 Oct 2014 (Local Time) from KI35 Reporting Station
Clear Clear  
Wind Chill: 55°   Ceiling: Unl
Heat Index: 55°   Visibility: 10mi
Dew Point: 37°   Wind: 5mph
Humidity: 51%   Direction: 70°ENE
Pressure: 30.19"   Gusts: NA
Location:  36.9548°N, 82.9776°W
Report Text: KI35 231635Z AUTO 07004KT 10SM CLR 13/03 A3019 RMK AO1
Loading
Personal Weather Stations






























Interactive Weather Map
Tropical Storm Tracking
New forecast layout! Learn more

10-Day Weather Forecast

Advertisements
Track Severe Weather on mobile